sensor_id;sensor_type;location;lat;lon;timestamp;pressure;altitude;pressure_sealevel;temperature;humidity
58967;BME280;44744;51.894;5.080;2023-05-23T00:00:56;102069.02;;;14.04;83.07
58967;BME280;44744;51.894;5.080;2023-05-23T00:01:57;102068.77;;;14.02;83.09
58967;BME280;44744;51.894;5.080;2023-05-23T00:02:57;102067.46;;;13.99;82.84
58967;BME280;44744;51.894;5.080;2023-05-23T00:03:57;102066.10;;;13.98;82.89
58967;BME280;44744;51.894;5.080;2023-05-23T00:04:58;102069.64;;;13.98;83.07
58967;BME280;44744;51.894;5.080;2023-05-23T00:05:58;102070.97;;;13.97;82.90
58967;BME280;44744;51.894;5.080;2023-05-23T00:06:58;102070.48;;;13.96;82.74
58967;BME280;44744;51.894;5.080;2023-05-23T00:08:00;102072.38;;;13.94;82.75
58967;BME280;44744;51.894;5.080;2023-05-23T00:09:01;102073.65;;;13.93;82.81
58967;BME280;44744;51.894;5.080;2023-05-23T00:10:02;102075.54;;;13.91;82.72
58967;BME280;44744;51.894;5.080;2023-05-23T00:11:02;102070.13;;;13.89;82.78
58967;BME280;44744;51.894;5.080;2023-05-23T00:12:02;102072.19;;;13.87;82.65
58967;BME280;44744;51.894;5.080;2023-05-23T00:13:03;102074.20;;;13.86;82.67
58967;BME280;44744;51.894;5.080;2023-05-23T00:14:03;102073.88;;;13.85;82.73
58967;BME280;44744;51.894;5.080;2023-05-23T00:15:04;102078.84;;;13.85;82.79
58967;BME280;44744;51.894;5.080;2023-05-23T00:16:05;102080.83;;;13.85;82.89
58967;BME280;44744;51.894;5.080;2023-05-23T00:17:07;102077.36;;;13.83;83.01
58967;BME280;44744;51.894;5.080;2023-05-23T00:18:08;102074.95;;;13.81;82.82
58967;BME280;44744;51.894;5.080;2023-05-23T00:19:09;102074.95;;;13.81;82.92
58967;BME280;44744;51.894;5.080;2023-05-23T00:20:10;102077.44;;;13.81;82.94
58967;BME280;44744;51.894;5.080;2023-05-23T00:21:10;102075.50;;;13.80;82.85
58967;BME280;44744;51.894;5.080;2023-05-23T00:22:11;102080.86;;;13.80;82.85
58967;BME280;44744;51.894;5.080;2023-05-23T00:23:11;102083.52;;;13.80;82.86
58967;BME280;44744;51.894;5.080;2023-05-23T00:24:12;102079.38;;;13.81;83.04
58967;BME280;44744;51.894;5.080;2023-05-23T00:25:12;102079.30;;;13.79;82.82
58967;BME280;44744;51.894;5.080;2023-05-23T00:26:12;102081.08;;;13.79;83.05
58967;BME280;44744;51.894;5.080;2023-05-23T00:27:12;102084.51;;;13.78;83.28
58967;BME280;44744;51.894;5.080;2023-05-23T00:28:13;102081.17;;;13.78;83.15
58967;BME280;44744;51.894;5.080;2023-05-23T00:29:14;102088.83;;;13.77;83.21
58967;BME280;44744;51.894;5.080;2023-05-23T00:30:14;102085.63;;;13.78;83.11
58967;BME280;44744;51.894;5.080;2023-05-23T00:31:14;102084.50;;;13.78;83.37
58967;BME280;44744;51.894;5.080;2023-05-23T00:32:15;102083.55;;;13.76;83.51
58967;BME280;44744;51.894;5.080;2023-05-23T00:33:16;102080.59;;;13.75;83.49
58967;BME280;44744;51.894;5.080;2023-05-23T00:34:16;102084.52;;;13.74;83.63
58967;BME280;44744;51.894;5.080;2023-05-23T00:35:17;102080.52;;;13.73;83.73
58967;BME280;44744;51.894;5.080;2023-05-23T00:36:17;102086.92;;;13.73;83.63
58967;BME280;44744;51.894;5.080;2023-05-23T00:37:17;102085.14;;;13.72;83.98
58967;BME280;44744;51.894;5.080;2023-05-23T00:38:17;102083.76;;;13.72;84.15
58967;BME280;44744;51.894;5.080;2023-05-23T00:39:18;102084.50;;;13.71;84.20
58967;BME280;44744;51.894;5.080;2023-05-23T00:40:18;102081.09;;;13.68;84.07
58967;BME280;44744;51.894;5.080;2023-05-23T00:41:21;102085.15;;;13.65;84.14
58967;BME280;44744;51.894;5.080;2023-05-23T00:42:21;102087.40;;;13.66;84.11
58967;BME280;44744;51.894;5.080;2023-05-23T00:43:22;102088.28;;;13.66;84.08
58967;BME280;44744;51.894;5.080;2023-05-23T00:44:22;102089.86;;;13.66;84.21
58967;BME280;44744;51.894;5.080;2023-05-23T00:45:22;102091.62;;;13.68;84.63
58967;BME280;44744;51.894;5.080;2023-05-23T00:46:23;102090.23;;;13.66;84.47
58967;BME280;44744;51.894;5.080;2023-05-23T00:47:23;102092.05;;;13.65;84.67
58967;BME280;44744;51.894;5.080;2023-05-23T00:48:24;102090.64;;;13.65;84.51
58967;BME280;44744;51.894;5.080;2023-05-23T00:49:25;102089.96;;;13.65;84.67
58967;BME280;44744;51.894;5.080;2023-05-23T00:50:27;102089.08;;;13.64;84.62
58967;BME280;44744;51.894;5.080;2023-05-23T00:51:28;102087.64;;;13.65;84.71
58967;BME280;44744;51.894;5.080;2023-05-23T00:52:30;102088.88;;;13.65;84.78
58967;BME280;44744;51.894;5.080;2023-05-23T00:53:31;102092.90;;;13.66;84.90
58967;BME280;44744;51.894;5.080;2023-05-23T00:54:33;102098.22;;;13.63;85.34
58967;BME280;44744;51.894;5.080;2023-05-23T00:55:33;102098.11;;;13.62;85.26
58967;BME280;44744;51.894;5.080;2023-05-23T00:56:35;102097.39;;;13.62;85.35
58967;BME280;44744;51.894;5.080;2023-05-23T00:57:36;102101.13;;;13.62;85.44
58967;BME280;44744;51.894;5.080;2023-05-23T00:58:38;102103.04;;;13.62;85.39
58967;BME280;44744;51.894;5.080;2023-05-23T00:59:39;102103.23;;;13.62;85.43
58967;BME280;44744;51.894;5.080;2023-05-23T01:00:41;102105.64;;;13.63;85.69
58967;BME280;44744;51.894;5.080;2023-05-23T01:01:42;102103.02;;;13.62;85.99
58967;BME280;44744;51.894;5.080;2023-05-23T01:02:44;102107.39;;;13.60;85.66
58967;BME280;44744;51.894;5.080;2023-05-23T01:03:45;102108.55;;;13.59;85.98
58967;BME280;44744;51.894;5.080;2023-05-23T01:04:48;102108.21;;;13.58;85.76
58967;BME280;44744;51.894;5.080;2023-05-23T01:05:48;102107.80;;;13.60;85.95
58967;BME280;44744;51.894;5.080;2023-05-23T01:06:49;102108.97;;;13.57;85.95
58967;BME280;44744;51.894;5.080;2023-05-23T01:07:50;102108.67;;;13.56;85.65
58967;BME280;44744;51.894;5.080;2023-05-23T01:08:51;102106.48;;;13.57;85.79
58967;BME280;44744;51.894;5.080;2023-05-23T01:09:51;102111.89;;;13.56;85.97
58967;BME280;44744;51.894;5.080;2023-05-23T01:10:52;102110.96;;;13.57;86.11
58967;BME280;44744;51.894;5.080;2023-05-23T01:12:36;102110.19;;;13.55;85.88
58967;BME280;44744;51.894;5.080;2023-05-23T01:13:45;102111.34;;;13.48;85.95
58967;BME280;44744;51.894;5.080;2023-05-23T01:15:09;102109.36;;;13.45;86.06
58967;BME280;44744;51.894;5.080;2023-05-23T01:16:24;102109.43;;;13.44;86.16
58967;BME280;44744;51.894;5.080;2023-05-23T01:17:58;102111.05;;;13.44;86.09
58967;BME280;44744;51.894;5.080;2023-05-23T01:19:16;102110.34;;;13.40;86.28
58967;BME280;44744;51.894;5.080;2023-05-23T01:20:22;102103.59;;;13.36;86.54
58967;BME280;44744;51.894;5.080;2023-05-23T01:21:24;102107.36;;;13.34;86.56
58967;BME280;44744;51.894;5.080;2023-05-23T01:25:58;102109.58;;;13.28;86.51
58967;BME280;44744;51.894;5.080;2023-05-23T01:27:43;102106.20;;;13.28;86.77
58967;BME280;44744;51.894;5.080;2023-05-23T01:28:46;102108.67;;;13.28;86.85
58967;BME280;44744;51.894;5.080;2023-05-23T01:29:52;102106.32;;;13.30;86.81
58967;BME280;44744;51.894;5.080;2023-05-23T01:30:56;102107.73;;;13.30;86.70
58967;BME280;44744;51.894;5.080;2023-05-23T01:31:58;102110.33;;;13.31;86.85
58967;BME280;44744;51.894;5.080;2023-05-23T01:33:00;102107.88;;;13.31;86.55
58967;BME280;44744;51.894;5.080;2023-05-23T01:34:01;102109.27;;;13.31;86.80
58967;BME280;44744;51.894;5.080;2023-05-23T01:35:02;102105.92;;;13.31;86.66
58967;BME280;44744;51.894;5.080;2023-05-23T01:36:03;102108.23;;;13.31;86.66
58967;BME280;44744;51.894;5.080;2023-05-23T01:37:08;102103.04;;;13.31;86.77
58967;BME280;44744;51.894;5.080;2023-05-23T01:38:08;102104.42;;;13.32;86.78
58967;BME280;44744;51.894;5.080;2023-05-23T01:39:09;102101.86;;;13.34;86.71
58967;BME280;44744;51.894;5.080;2023-05-23T01:40:10;102103.61;;;13.35;86.65
58967;BME280;44744;51.894;5.080;2023-05-23T01:41:10;102101.22;;;13.37;86.82
58967;BME280;44744;51.894;5.080;2023-05-23T01:42:11;102103.52;;;13.37;86.63
58967;BME280;44744;51.894;5.080;2023-05-23T01:43:11;102103.96;;;13.36;86.38
58967;BME280;44744;51.894;5.080;2023-05-23T01:44:12;102102.73;;;13.35;86.22
58967;BME280;44744;51.894;5.080;2023-05-23T01:45:14;102104.42;;;13.37;86.41
58967;BME280;44744;51.894;5.080;2023-05-23T01:46:15;102105.96;;;13.39;86.31
58967;BME280;44744;51.894;5.080;2023-05-23T01:47:16;102109.61;;;13.40;86.50
58967;BME280;44744;51.894;5.080;2023-05-23T01:48:17;102109.52;;;13.38;86.44
58967;BME280;44744;51.894;5.080;2023-05-23T01:49:19;102110.81;;;13.37;86.33
58967;BME280;44744;51.894;5.080;2023-05-23T01:50:22;102113.61;;;13.38;86.20
58967;BME280;44744;51.894;5.080;2023-05-23T01:51:23;102109.64;;;13.40;86.30
58967;BME280;44744;51.894;5.080;2023-05-23T01:52:23;102114.48;;;13.38;86.05
58967;BME280;44744;51.894;5.080;2023-05-23T01:53:25;102115.35;;;13.39;86.43
58967;BME280;44744;51.894;5.080;2023-05-23T01:54:25;102115.87;;;13.39;86.29
58967;BME280;44744;51.894;5.080;2023-05-23T01:55:26;102115.68;;;13.40;86.34
58967;BME280;44744;51.894;5.080;2023-05-23T01:56:27;102120.27;;;13.41;86.12
58967;BME280;44744;51.894;5.080;2023-05-23T01:57:28;102118.09;;;13.41;86.29
58967;BME280;44744;51.894;5.080;2023-05-23T01:58:29;102117.21;;;13.41;86.09
58967;BME280;44744;51.894;5.080;2023-05-23T01:59:30;102116.44;;;13.42;86.32
58967;BME280;44744;51.894;5.080;2023-05-23T02:00:30;102117.08;;;13.40;86.10
58967;BME280;44744;51.894;5.080;2023-05-23T02:01:30;102115.67;;;13.40;86.17
58967;BME280;44744;51.894;5.080;2023-05-23T02:02:32;102116.74;;;13.40;86.39
58967;BME280;44744;51.894;5.080;2023-05-23T02:03:33;102116.02;;;13.40;86.20
58967;BME280;44744;51.894;5.080;2023-05-23T02:04:33;102120.10;;;13.40;86.17
58967;BME280;44744;51.894;5.080;2023-05-23T02:05:34;102120.20;;;13.42;86.23
58967;BME280;44744;51.894;5.080;2023-05-23T02:06:35;102119.81;;;13.42;86.17
58967;BME280;44744;51.894;5.080;2023-05-23T02:07:35;102114.64;;;13.42;86.23
58967;BME280;44744;51.894;5.080;2023-05-23T02:08:36;102116.11;;;13.42;86.16
58967;BME280;44744;51.894;5.080;2023-05-23T02:09:36;102121.30;;;13.41;86.09
58967;BME280;44744;51.894;5.080;2023-05-23T02:10:36;102123.61;;;13.41;86.05
58967;BME280;44744;51.894;5.080;2023-05-23T02:11:36;102122.95;;;13.40;85.72
58967;BME280;44744;51.894;5.080;2023-05-23T02:12:38;102117.60;;;13.40;85.68
58967;BME280;44744;51.894;5.080;2023-05-23T02:13:38;102123.17;;;13.39;85.70
58967;BME280;44744;51.894;5.080;2023-05-23T02:14:39;102120.73;;;13.38;85.66
58967;BME280;44744;51.894;5.080;2023-05-23T02:15:39;102123.84;;;13.36;85.59
58967;BME280;44744;51.894;5.080;2023-05-23T02:16:39;102125.09;;;13.36;85.49
58967;BME280;44744;51.894;5.080;2023-05-23T02:17:40;102125.90;;;13.38;85.40
58967;BME280;44744;51.894;5.080;2023-05-23T02:18:40;102125.98;;;13.36;85.44
58967;BME280;44744;51.894;5.080;2023-05-23T02:19:40;102124.51;;;13.37;85.39
58967;BME280;44744;51.894;5.080;2023-05-23T02:20:40;102123.12;;;13.36;85.29
58967;BME280;44744;51.894;5.080;2023-05-23T02:21:41;102123.52;;;13.35;85.10
58967;BME280;44744;51.894;5.080;2023-05-23T02:22:41;102124.06;;;13.34;85.07
58967;BME280;44744;51.894;5.080;2023-05-23T02:23:41;102125.62;;;13.36;85.08
58967;BME280;44744;51.894;5.080;2023-05-23T02:24:42;102123.63;;;13.37;85.17
58967;BME280;44744;51.894;5.080;2023-05-23T02:25:42;102119.86;;;13.37;85.15
58967;BME280;44744;51.894;5.080;2023-05-23T02:26:42;102120.52;;;13.38;85.02
58967;BME280;44744;51.894;5.080;2023-05-23T02:27:43;102121.04;;;13.39;85.12
58967;BME280;44744;51.894;5.080;2023-05-23T02:28:43;102118.20;;;13.39;84.79
58967;BME280;44744;51.894;5.080;2023-05-23T02:29:43;102120.37;;;13.38;84.93
58967;BME280;44744;51.894;5.080;2023-05-23T02:30:44;102118.96;;;13.38;84.99
58967;BME280;44744;51.894;5.080;2023-05-23T02:31:44;102119.51;;;13.38;84.95
58967;BME280;44744;51.894;5.080;2023-05-23T02:32:44;102121.27;;;13.38;84.81
58967;BME280;44744;51.894;5.080;2023-05-23T02:33:45;102122.44;;;13.39;84.99
58967;BME280;44744;51.894;5.080;2023-05-23T02:34:45;102122.20;;;13.41;84.82
58967;BME280;44744;51.894;5.080;2023-05-23T02:35:45;102124.48;;;13.41;84.94
58967;BME280;44744;51.894;5.080;2023-05-23T02:36:46;102127.48;;;13.42;84.80
58967;BME280;44744;51.894;5.080;2023-05-23T02:37:46;102130.63;;;13.43;84.86
58967;BME280;44744;51.894;5.080;2023-05-23T02:38:46;102129.49;;;13.44;84.82
58967;BME280;44744;51.894;5.080;2023-05-23T02:39:46;102131.61;;;13.44;84.83
58967;BME280;44744;51.894;5.080;2023-05-23T02:40:47;102135.89;;;13.45;84.92
58967;BME280;44744;51.894;5.080;2023-05-23T02:41:48;102136.80;;;13.44;84.72
58967;BME280;44744;51.894;5.080;2023-05-23T02:42:48;102138.42;;;13.43;84.78
58967;BME280;44744;51.894;5.080;2023-05-23T02:43:49;102141.45;;;13.43;84.90
58967;BME280;44744;51.894;5.080;2023-05-23T02:44:49;102137.33;;;13.44;84.79
58967;BME280;44744;51.894;5.080;2023-05-23T02:45:49;102138.83;;;13.46;85.20
58967;BME280;44744;51.894;5.080;2023-05-23T02:46:49;102139.91;;;13.46;85.13
58967;BME280;44744;51.894;5.080;2023-05-23T02:47:50;102139.83;;;13.44;84.95
58967;BME280;44744;51.894;5.080;2023-05-23T02:48:50;102140.23;;;13.43;84.96
58967;BME280;44744;51.894;5.080;2023-05-23T02:49:50;102143.25;;;13.42;84.84
58967;BME280;44744;51.894;5.080;2023-05-23T02:50:51;102144.64;;;13.43;84.98
58967;BME280;44744;51.894;5.080;2023-05-23T02:51:51;102146.59;;;13.43;84.99
58967;BME280;44744;51.894;5.080;2023-05-23T02:52:51;102147.48;;;13.43;84.95
58967;BME280;44744;51.894;5.080;2023-05-23T02:53:52;102153.89;;;13.43;84.89
58967;BME280;44744;51.894;5.080;2023-05-23T02:54:52;102150.55;;;13.42;85.12
58967;BME280;44744;51.894;5.080;2023-05-23T02:55:52;102152.55;;;13.41;84.94
58967;BME280;44744;51.894;5.080;2023-05-23T02:56:52;102149.38;;;13.41;84.99
58967;BME280;44744;51.894;5.080;2023-05-23T02:57:53;102149.83;;;13.39;84.85
58967;BME280;44744;51.894;5.080;2023-05-23T02:58:53;102150.23;;;13.38;84.90
58967;BME280;44744;51.894;5.080;2023-05-23T02:59:53;102152.96;;;13.36;85.03
58967;BME280;44744;51.894;5.080;2023-05-23T03:00:53;102157.61;;;13.36;84.99
58967;BME280;44744;51.894;5.080;2023-05-23T03:01:54;102157.98;;;13.35;85.04
58967;BME280;44744;51.894;5.080;2023-05-23T03:02:54;102155.27;;;13.31;84.80
58967;BME280;44744;51.894;5.080;2023-05-23T03:03:54;102158.57;;;13.29;84.96
58967;BME280;44744;51.894;5.080;2023-05-23T03:04:55;102155.05;;;13.29;85.02
58967;BME280;44744;51.894;5.080;2023-05-23T03:05:55;102155.45;;;13.28;84.98
58967;BME280;44744;51.894;5.080;2023-05-23T03:06:55;102148.14;;;13.28;85.06
58967;BME280;44744;51.894;5.080;2023-05-23T03:07:55;102152.95;;;13.27;84.94
58967;BME280;44744;51.894;5.080;2023-05-23T03:08:55;102152.79;;;13.27;84.77
58967;BME280;44744;51.894;5.080;2023-05-23T03:09:56;102146.71;;;13.28;85.06
58967;BME280;44744;51.894;5.080;2023-05-23T03:10:56;102145.32;;;13.28;84.84
58967;BME280;44744;51.894;5.080;2023-05-23T03:11:56;102147.05;;;13.29;84.92
58967;BME280;44744;51.894;5.080;2023-05-23T03:12:57;102145.27;;;13.29;84.99
58967;BME280;44744;51.894;5.080;2023-05-23T03:13:57;102145.61;;;13.29;84.75
58967;BME280;44744;51.894;5.080;2023-05-23T03:14:57;102143.23;;;13.30;84.98
58967;BME280;44744;51.894;5.080;2023-05-23T03:15:57;102148.05;;;13.30;85.11
58967;BME280;44744;51.894;5.080;2023-05-23T03:16:58;102148.23;;;13.30;85.15
58967;BME280;44744;51.894;5.080;2023-05-23T03:17:58;102147.88;;;13.30;85.02
58967;BME280;44744;51.894;5.080;2023-05-23T03:18:58;102143.65;;;13.29;85.00
58967;BME280;44744;51.894;5.080;2023-05-23T03:19:58;102144.70;;;13.30;84.89
58967;BME280;44744;51.894;5.080;2023-05-23T03:20:59;102144.70;;;13.29;84.88
58967;BME280;44744;51.894;5.080;2023-05-23T03:21:59;102149.85;;;13.30;84.86
58967;BME280;44744;51.894;5.080;2023-05-23T03:22:59;102146.48;;;13.29;84.72
58967;BME280;44744;51.894;5.080;2023-05-23T03:24:00;102146.98;;;13.30;85.03
58967;BME280;44744;51.894;5.080;2023-05-23T03:25:00;102147.41;;;13.28;85.07
58967;BME280;44744;51.894;5.080;2023-05-23T03:26:01;102146.19;;;13.28;84.82
58967;BME280;44744;51.894;5.080;2023-05-23T03:27:01;102151.55;;;13.28;85.02
58967;BME280;44744;51.894;5.080;2023-05-23T03:28:02;102148.88;;;13.27;85.05
58967;BME280;44744;51.894;5.080;2023-05-23T03:29:02;102151.19;;;13.27;84.91
58967;BME280;44744;51.894;5.080;2023-05-23T03:30:03;102154.84;;;13.25;84.89
58967;BME280;44744;51.894;5.080;2023-05-23T03:31:03;102152.65;;;13.23;84.85
58967;BME280;44744;51.894;5.080;2023-05-23T03:32:04;102153.98;;;13.21;84.88
58967;BME280;44744;51.894;5.080;2023-05-23T03:33:04;102155.11;;;13.20;84.84
58967;BME280;44744;51.894;5.080;2023-05-23T03:34:04;102156.73;;;13.19;84.64
58967;BME280;44744;51.894;5.080;2023-05-23T03:35:05;102154.31;;;13.18;84.67
58967;BME280;44744;51.894;5.080;2023-05-23T03:36:05;102153.41;;;13.14;84.52
58967;BME280;44744;51.894;5.080;2023-05-23T03:37:06;102151.35;;;13.12;84.56
58967;BME280;44744;51.894;5.080;2023-05-23T03:38:06;102154.91;;;13.12;84.76
58967;BME280;44744;51.894;5.080;2023-05-23T03:39:06;102152.30;;;13.11;84.50
58967;BME280;44744;51.894;5.080;2023-05-23T03:40:08;102157.89;;;13.09;84.45
58967;BME280;44744;51.894;5.080;2023-05-23T03:41:08;102157.58;;;13.08;84.63
58967;BME280;44744;51.894;5.080;2023-05-23T03:42:08;102152.40;;;13.05;84.58
58967;BME280;44744;51.894;5.080;2023-05-23T03:43:09;102154.20;;;13.04;84.54
58967;BME280;44744;51.894;5.080;2023-05-23T03:44:09;102157.05;;;13.04;84.41
58967;BME280;44744;51.894;5.080;2023-05-23T03:45:09;102157.05;;;13.04;84.29
58967;BME280;44744;51.894;5.080;2023-05-23T03:46:10;102158.39;;;13.02;84.10
58967;BME280;44744;51.894;5.080;2023-05-23T03:47:10;102159.89;;;13.00;84.01
58967;BME280;44744;51.894;5.080;2023-05-23T03:48:10;102158.50;;;12.99;84.18
58967;BME280;44744;51.894;5.080;2023-05-23T03:49:10;102159.65;;;12.97;84.10
58967;BME280;44744;51.894;5.080;2023-05-23T03:50:11;102164.81;;;12.96;84.01
58967;BME280;44744;51.894;5.080;2023-05-23T03:51:11;102165.02;;;12.96;84.27
58967;BME280;44744;51.894;5.080;2023-05-23T03:52:11;102165.19;;;12.96;84.29
58967;BME280;44744;51.894;5.080;2023-05-23T03:53:11;102167.86;;;12.96;84.13
58967;BME280;44744;51.894;5.080;2023-05-23T03:54:12;102166.80;;;12.96;84.19
58967;BME280;44744;51.894;5.080;2023-05-23T03:55:12;102169.95;;;12.97;84.33
58967;BME280;44744;51.894;5.080;2023-05-23T03:56:12;102171.79;;;12.96;84.22
58967;BME280;44744;51.894;5.080;2023-05-23T03:57:12;102171.40;;;12.96;84.14
58967;BME280;44744;51.894;5.080;2023-05-23T03:58:13;102172.36;;;12.95;83.94
58967;BME280;44744;51.894;5.080;2023-05-23T03:59:13;102169.98;;;12.92;83.78
58967;BME280;44744;51.894;5.080;2023-05-23T04:00:14;102171.78;;;12.92;83.52
58967;BME280;44744;51.894;5.080;2023-05-23T04:01:15;102175.11;;;12.89;83.69
58967;BME280;44744;51.894;5.080;2023-05-23T04:02:15;102174.95;;;12.89;83.51
58967;BME280;44744;51.894;5.080;2023-05-23T04:03:16;102178.73;;;12.87;83.43
58967;BME280;44744;51.894;5.080;2023-05-23T04:04:16;102181.10;;;12.86;83.60
58967;BME280;44744;51.894;5.080;2023-05-23T04:05:17;102181.31;;;12.85;83.39
58967;BME280;44744;51.894;5.080;2023-05-23T04:06:17;102183.50;;;12.84;83.21
58967;BME280;44744;51.894;5.080;2023-05-23T04:07:17;102186.05;;;12.82;83.44
58967;BME280;44744;51.894;5.080;2023-05-23T04:08:18;102184.27;;;12.82;83.35
58967;BME280;44744;51.894;5.080;2023-05-23T04:09:21;102186.27;;;12.81;83.33
58967;BME280;44744;51.894;5.080;2023-05-23T04:10:21;102185.40;;;12.80;83.41
58967;BME280;44744;51.894;5.080;2023-05-23T04:11:22;102188.58;;;12.81;83.23
58967;BME280;44744;51.894;5.080;2023-05-23T04:12:22;102186.56;;;12.83;83.23
58967;BME280;44744;51.894;5.080;2023-05-23T04:13:22;102184.81;;;12.82;82.92
58967;BME280;44744;51.894;5.080;2023-05-23T04:14:22;102187.52;;;12.81;82.90
58967;BME280;44744;51.894;5.080;2023-05-23T04:15:23;102186.44;;;12.81;83.00
58967;BME280;44744;51.894;5.080;2023-05-23T04:16:23;102191.55;;;12.82;82.60
58967;BME280;44744;51.894;5.080;2023-05-23T04:17:24;102191.42;;;12.81;82.74
58967;BME280;44744;51.894;5.080;2023-05-23T04:18:24;102191.30;;;12.80;82.61
58967;BME280;44744;51.894;5.080;2023-05-23T04:19:24;102193.09;;;12.79;82.65
58967;BME280;44744;51.894;5.080;2023-05-23T04:20:25;102193.15;;;12.78;82.54
58967;BME280;44744;51.894;5.080;2023-05-23T04:21:26;102192.64;;;12.77;82.35
58967;BME280;44744;51.894;5.080;2023-05-23T04:22:27;102193.23;;;12.76;82.44
58967;BME280;44744;51.894;5.080;2023-05-23T04:23:27;102198.00;;;12.77;82.63
58967;BME280;44744;51.894;5.080;2023-05-23T04:24:27;102200.82;;;12.77;82.47
58967;BME280;44744;51.894;5.080;2023-05-23T04:25:27;102199.95;;;12.76;82.34
58967;BME280;44744;51.894;5.080;2023-05-23T04:26:52;102201.78;;;12.75;82.30
58967;BME280;44744;51.894;5.080;2023-05-23T04:27:53;102201.52;;;12.73;82.40
58967;BME280;44744;51.894;5.080;2023-05-23T04:28:53;102204.04;;;12.72;82.36
58967;BME280;44744;51.894;5.080;2023-05-23T04:29:54;102207.33;;;12.70;82.59
58967;BME280;44744;51.894;5.080;2023-05-23T04:30:54;102205.44;;;12.69;82.52
58967;BME280;44744;51.894;5.080;2023-05-23T04:31:54;102208.99;;;12.68;82.41
58967;BME280;44744;51.894;5.080;2023-05-23T04:32:56;102213.55;;;12.66;82.65
58967;BME280;44744;51.894;5.080;2023-05-23T04:33:56;102212.15;;;12.65;82.64
58967;BME280;44744;51.894;5.080;2023-05-23T04:34:56;102212.56;;;12.63;82.75
58967;BME280;44744;51.894;5.080;2023-05-23T04:35:57;102213.25;;;12.63;82.55
58967;BME280;44744;51.894;5.080;2023-05-23T04:36:57;102212.16;;;12.65;82.62
58967;BME280;44744;51.894;5.080;2023-05-23T04:37:57;102212.94;;;12.63;82.33
58967;BME280;44744;51.894;5.080;2023-05-23T04:38:57;102214.70;;;12.63;82.27
58967;BME280;44744;51.894;5.080;2023-05-23T04:39:58;102216.52;;;12.62;81.90
58967;BME280;44744;51.894;5.080;2023-05-23T04:40:58;102220.18;;;12.60;81.98
58967;BME280;44744;51.894;5.080;2023-05-23T04:41:58;102217.42;;;12.58;81.94
58967;BME280;44744;51.894;5.080;2023-05-23T04:42:58;102219.27;;;12.55;81.85
58967;BME280;44744;51.894;5.080;2023-05-23T04:43:59;102217.89;;;12.55;81.98
58967;BME280;44744;51.894;5.080;2023-05-23T04:44:59;102221.99;;;12.54;81.98
58967;BME280;44744;51.894;5.080;2023-05-23T04:45:59;102220.23;;;12.54;81.87
58967;BME280;44744;51.894;5.080;2023-05-23T04:46:59;102221.14;;;12.54;81.68
58967;BME280;44744;51.894;5.080;2023-05-23T04:48:00;102222.60;;;12.53;81.74
58967;BME280;44744;51.894;5.080;2023-05-23T04:49:00;102225.46;;;12.52;81.75
58967;BME280;44744;51.894;5.080;2023-05-23T04:50:00;102223.61;;;12.50;81.69
58967;BME280;44744;51.894;5.080;2023-05-23T04:51:00;102224.74;;;12.48;81.87
58967;BME280;44744;51.894;5.080;2023-05-23T04:52:01;102224.54;;;12.49;81.83
58967;BME280;44744;51.894;5.080;2023-05-23T04:53:01;102224.16;;;12.49;81.93
58967;BME280;44744;51.894;5.080;2023-05-23T04:54:01;102227.33;;;12.50;81.96
58967;BME280;44744;51.894;5.080;2023-05-23T04:55:02;102230.02;;;12.49;81.67
58967;BME280;44744;51.894;5.080;2023-05-23T04:56:02;102231.65;;;12.48;81.58
58967;BME280;44744;51.894;5.080;2023-05-23T04:57:02;102232.44;;;12.46;81.51
58967;BME280;44744;51.894;5.080;2023-05-23T04:58:03;102235.76;;;12.48;81.53
58967;BME280;44744;51.894;5.080;2023-05-23T04:59:03;102235.29;;;12.46;81.17
58967;BME280;44744;51.894;5.080;2023-05-23T05:00:04;102239.92;;;12.45;81.06
58967;BME280;44744;51.894;5.080;2023-05-23T05:01:05;102239.46;;;12.44;80.85
58967;BME280;44744;51.894;5.080;2023-05-23T05:02:05;102243.61;;;12.42;80.82
58967;BME280;44744;51.894;5.080;2023-05-23T05:03:05;102247.02;;;12.41;80.66
58967;BME280;44744;51.894;5.080;2023-05-23T05:04:06;102249.42;;;12.39;80.72
58967;BME280;44744;51.894;5.080;2023-05-23T05:05:06;102252.60;;;12.39;80.60
58967;BME280;44744;51.894;5.080;2023-05-23T05:06:07;102254.21;;;12.39;80.47
58967;BME280;44744;51.894;5.080;2023-05-23T05:07:07;102256.88;;;12.39;80.58
58967;BME280;44744;51.894;5.080;2023-05-23T05:08:07;102257.08;;;12.38;80.45
58967;BME280;44744;51.894;5.080;2023-05-23T05:09:07;102261.70;;;12.38;80.42
58967;BME280;44744;51.894;5.080;2023-05-23T05:10:09;102259.61;;;12.37;80.47
58967;BME280;44744;51.894;5.080;2023-05-23T05:11:09;102264.95;;;12.37;80.27
58967;BME280;44744;51.894;5.080;2023-05-23T05:12:10;102265.14;;;12.36;80.14
58967;BME280;44744;51.894;5.080;2023-05-23T05:13:10;102265.27;;;12.33;80.02
58967;BME280;44744;51.894;5.080;2023-05-23T05:14:10;102265.71;;;12.31;80.29
58967;BME280;44744;51.894;5.080;2023-05-23T05:15:11;102270.13;;;12.31;80.35
58967;BME280;44744;51.894;5.080;2023-05-23T05:16:11;102263.12;;;12.34;80.21
58967;BME280;44744;51.894;5.080;2023-05-23T05:17:11;102268.30;;;12.32;80.03
58967;BME280;44744;51.894;5.080;2023-05-23T05:18:12;102268.36;;;12.31;80.18
58967;BME280;44744;51.894;5.080;2023-05-23T05:19:12;102269.58;;;12.31;80.33
58967;BME280;44744;51.894;5.080;2023-05-23T05:20:13;102272.02;;;12.33;80.42
58967;BME280;44744;51.894;5.080;2023-05-23T05:21:13;102272.52;;;12.33;79.91
58967;BME280;44744;51.894;5.080;2023-05-23T05:22:13;102269.77;;;12.32;79.64
58967;BME280;44744;51.894;5.080;2023-05-23T05:23:13;102268.55;;;12.31;79.72
58967;BME280;44744;51.894;5.080;2023-05-23T05:24:14;102272.13;;;12.30;79.69